Time;durP1;ratioP1;P1;durP2;ratioP2;P2;SDS_P1;SDS_P2;PMS_P1;PMS_P2;Temp;Humidity;BMP_temperature;BMP_pressure;BME280_temperature;BME280_humidity;BME280_pressure;Samples;Min_cycle;Max_cycle;Signal;HPM_P1;HPM_P2
2022/11/24 00:01:51;;;;;;;3.73;2.27;;;2.10;99.90;3.00;95815.00;;;;5088978;28;20846;-69
2022/11/24 00:04:39;;;;;;;3.43;2.07;;;2.00;99.90;3.10;95816.00;;;;5085690;28;20424;-69
2022/11/24 00:07:28;;;;;;;2.93;2.50;;;2.00;99.90;3.10;95815.00;;;;5089713;28;20943;-68
2022/11/24 00:10:17;;;;;;;2.20;2.00;;;2.00;99.90;3.00;95809.00;;;;5089470;28;21172;-68
2022/11/24 00:13:06;;;;;;;2.43;1.90;;;1.90;99.90;2.90;95807.00;;;;5087296;28;20441;-69
2022/11/24 00:15:54;;;;;;;0.97;0.90;;;1.90;99.90;2.80;95811.00;;;;5084022;28;20531;-69
2022/11/24 00:18:46;;;;;;;2.10;1.93;;;1.80;99.90;2.70;95803.00;;;;5089468;28;20914;-69
2022/11/24 00:21:36;;;;;;;1.37;1.13;;;1.80;99.90;2.80;95800.00;;;;5089873;28;20425;-69
2022/11/24 00:24:25;;;;;;;2.33;1.57;;;1.70;99.90;2.70;95787.00;;;;5089629;28;20432;-69
2022/11/24 00:27:14;;;;;;;1.60;1.50;;;1.70;99.90;2.50;95777.00;;;;5092564;28;20846;-70
2022/11/24 00:30:02;;;;;;;3.23;1.73;;;1.70;99.90;2.60;95778.00;;;;5089233;28;20430;-69
2022/11/24 00:32:53;;;;;;;3.90;2.00;;;1.70;99.90;2.80;95768.00;;;;5089211;28;20532;-69
2022/11/24 00:35:43;;;;;;;2.73;2.40;;;1.70;99.90;2.60;95789.00;;;;5087112;28;20413;-69
2022/11/24 00:38:32;;;;;;;1.93;1.47;;;1.70;99.90;2.20;95791.00;;;;5089588;28;20473;-69
2022/11/24 00:41:20;;;;;;;1.60;1.50;;;1.60;99.90;2.30;95804.00;;;;5088644;28;20506;-69
2022/11/24 00:44:09;;;;;;;2.07;1.90;;;1.50;99.90;2.50;95812.00;;;;5086415;28;20456;-70
2022/11/24 00:46:58;;;;;;;2.07;1.90;;;1.50;99.90;2.00;95810.00;;;;5087724;28;20436;-69
2022/11/24 00:49:46;;;;;;;2.03;1.37;;;1.40;99.90;1.80;95800.00;;;;5082504;28;20448;-69
2022/11/24 00:52:36;;;;;;;2.00;1.70;;;1.30;99.90;1.70;95799.00;;;;5089134;28;20502;-70
2022/11/24 00:55:25;;;;;;;2.73;1.30;;;1.20;99.90;2.10;95810.00;;;;5088335;28;20414;-69
2022/11/24 00:58:13;;;;;;;3.93;1.97;;;1.10;99.90;2.10;95816.00;;;;5084730;28;20440;-68
2022/11/24 01:01:05;;;;;;;3.27;1.90;;;1.10;99.90;2.20;95824.00;;;;5089597;28;20479;-69
2022/11/24 01:03:54;;;;;;;2.30;1.70;;;1.10;99.90;2.00;95821.00;;;;5083600;28;20449;-69
2022/11/24 01:06:43;;;;;;;2.60;1.80;;;1.10;99.90;1.70;95832.00;;;;5088309;28;20432;-69
2022/11/24 01:09:33;;;;;;;2.27;1.73;;;1.00;99.90;1.40;95823.00;;;;5088750;28;20425;-69
2022/11/24 01:12:21;;;;;;;3.13;1.73;;;0.90;99.90;1.60;95824.00;;;;5089036;28;20441;-69
2022/11/24 01:15:10;;;;;;;2.17;1.67;;;0.80;99.90;1.70;95825.00;;;;5085684;28;20799;-69
2022/11/24 01:17:59;;;;;;;2.80;1.63;;;0.80;99.90;1.70;95825.00;;;;5088008;28;20429;-69
2022/11/24 01:20:48;;;;;;;1.40;1.30;;;0.80;99.90;1.60;95830.00;;;;5083726;28;20482;-69
2022/11/24 01:23:36;;;;;;;1.47;1.33;;;0.70;99.90;1.70;95833.00;;;;5088659;28;20434;-69
2022/11/24 01:26:26;;;;;;;2.30;1.90;;;0.70;99.90;1.70;95835.00;;;;5088990;28;20429;-70
2022/11/24 01:29:15;;;;;;;1.37;1.27;;;0.70;99.90;1.60;95816.00;;;;5088885;28;20468;-70
2022/11/24 01:32:04;;;;;;;1.87;1.77;;;0.70;99.90;1.40;95836.00;;;;5088217;28;20519;-69
2022/11/24 01:34:53;;;;;;;1.90;1.80;;;0.70;99.90;1.50;95836.00;;;;5089310;28;20438;-69
2022/11/24 01:37:41;;;;;;;2.30;1.50;;;0.70;99.90;1.40;95845.00;;;;5088633;28;20421;-69
2022/11/24 01:40:30;;;;;;;2.60;1.77;;;0.70;99.90;1.40;95850.00;;;;5088371;28;20457;-70
2022/11/24 01:43:22;;;;;;;1.77;1.67;;;0.70;99.90;1.30;95840.00;;;;5088796;28;20453;-69
2022/11/24 01:46:19;;;;;;;2.03;1.93;;;0.60;99.90;1.40;95842.00;;;;5088771;28;20426;-69
2022/11/24 01:49:14;;;;;;;7.37;2.17;;;0.60;99.90;1.30;95850.00;;;;5084549;28;20437;-69
2022/11/24 01:52:10;;;;;;;6.83;2.07;;;0.60;99.90;1.30;95864.00;;;;5088649;28;20457;-70
2022/11/24 01:55:03;;;;;;;1.90;1.70;;;0.60;99.90;1.10;95849.00;;;;5084283;28;20430;-70
2022/11/24 01:57:57;;;;;;;1.30;1.20;;;0.50;99.90;0.80;95850.00;;;;5088127;28;20848;-69
2022/11/24 02:00:47;;;;;;;1.57;1.47;;;0.40;99.90;1.10;95855.00;;;;5088482;28;20547;-70
2022/11/24 02:03:39;;;;;;;2.97;1.97;;;0.40;99.90;1.60;95861.00;;;;5088477;28;20526;-70
2022/11/24 02:06:30;;;;;;;1.93;1.83;;;0.40;99.90;1.80;95869.00;;;;5087834;28;20430;-70
2022/11/24 02:09:25;;;;;;;1.93;1.57;;;0.50;99.90;1.80;95873.00;;;;5089321;28;20522;-70
2022/11/24 02:12:14;;;;;;;1.70;1.33;;;0.60;99.90;0.90;95862.00;;;;5091388;28;20456;-70
2022/11/24 02:15:02;;;;;;;1.57;1.47;;;0.60;99.90;1.20;95859.00;;;;5092266;28;20501;-70
2022/11/24 02:17:52;;;;;;;2.17;1.90;;;0.60;99.90;1.50;95868.00;;;;5091810;28;20779;-70
2022/11/24 02:20:41;;;;;;;6.20;1.80;;;0.60;99.90;1.50;95860.00;;;;5091929;28;20511;-69
2022/11/24 02:23:39;;;;;;;1.67;1.57;;;0.60;99.90;1.80;95863.00;;;;5091364;28;20490;-70
2022/11/24 02:26:45;;;;;;;4.10;1.87;;;0.60;99.90;1.70;95855.00;;;;5081605;28;20438;-69
2022/11/24 02:29:33;;;;;;;1.83;1.57;;;0.70;99.90;1.50;95858.00;;;;5091764;28;20848;-68
2022/11/24 02:32:23;;;;;;;1.67;1.50;;;0.70;99.90;1.70;95880.00;;;;5091170;28;21016;-68
2022/11/24 02:35:13;;;;;;;1.37;1.27;;;0.80;99.90;1.70;95863.00;;;;5091767;28;21050;-67
2022/11/24 02:38:01;;;;;;;1.27;1.17;;;0.80;99.90;1.60;95873.00;;;;5091903;28;20417;-70
2022/11/24 02:40:50;;;;;;;2.03;1.20;;;0.90;99.90;1.90;95861.00;;;;5091105;28;20473;-69
2022/11/24 02:43:45;;;;;;;1.93;1.57;;;0.90;99.90;1.60;95863.00;;;;5091983;28;20490;-69
2022/11/24 02:46:34;;;;;;;1.20;1.03;;;0.90;99.90;1.30;95870.00;;;;5091235;28;20441;-72
2022/11/24 02:49:23;;;;;;;1.00;1.00;;;0.80;99.90;1.30;95870.00;;;;5090842;28;20512;-72
2022/11/24 02:52:11;;;;;;;1.53;1.43;;;0.80;99.90;1.50;95868.00;;;;5090791;28;20446;-69
2022/11/24 02:55:00;;;;;;;2.17;1.60;;;0.80;99.90;1.60;95862.00;;;;5092025;28;22033;-69
2022/11/24 02:57:49;;;;;;;2.00;1.23;;;0.80;99.90;1.80;95870.00;;;;5090915;28;20907;-69
2022/11/24 03:00:39;;;;;;;0.70;0.70;;;0.90;99.90;1.30;95892.00;;;;5084267;28;21000;-72
2022/11/24 03:03:28;;;;;;;1.07;1.07;;;0.80;99.90;1.30;95884.00;;;;5090512;28;20956;-72
2022/11/24 03:06:16;;;;;;;1.57;1.43;;;0.70;99.90;1.60;95888.00;;;;5091090;28;20470;-70
2022/11/24 03:09:05;;;;;;;1.57;1.20;;;0.80;99.90;1.80;95888.00;;;;5090589;28;20526;-69
2022/11/24 03:11:54;;;;;;;1.20;1.10;;;0.80;99.90;1.90;95898.00;;;;5091261;28;20428;-69
2022/11/24 03:14:43;;;;;;;1.53;1.43;;;0.80;99.90;2.10;95902.00;;;;5090148;28;20413;-69
2022/11/24 03:17:32;;;;;;;2.07;1.87;;;0.90;99.90;2.10;95901.00;;;;5090094;28;20441;-69
2022/11/24 03:20:21;;;;;;;1.27;1.17;;;1.00;99.90;2.00;95906.00;;;;5089895;28;20457;-69
2022/11/24 03:23:10;;;;;;;1.30;1.20;;;1.00;99.90;2.20;95908.00;;;;5090510;28;20541;-69
2022/11/24 03:26:08;;;;;;;1.67;1.57;;;1.00;99.90;2.20;95911.00;;;;5092547;28;20520;-69
2022/11/24 03:28:57;;;;;;;3.17;1.50;;;1.00;99.90;2.00;95916.00;;;;5090169;28;20949;-69
2022/11/24 03:31:46;;;;;;;2.37;1.43;;;1.00;99.90;2.10;95913.00;;;;5090165;28;20469;-69
2022/11/24 03:34:36;;;;;;;1.40;1.30;;;1.00;99.90;2.00;95921.00;;;;5090615;28;20424;-69
2022/11/24 03:37:24;;;;;;;1.40;1.30;;;1.00;99.90;2.30;95918.00;;;;5089933;28;20429;-69
2022/11/24 03:40:13;;;;;;;1.70;1.47;;;1.10;99.90;2.30;95935.00;;;;5089636;28;20515;-69
2022/11/24 03:43:02;;;;;;;1.53;1.30;;;1.10;99.90;2.40;95933.00;;;;5086462;28;20452;-69
2022/11/24 03:45:51;;;;;;;2.00;1.57;;;1.10;99.90;2.10;95935.00;;;;5084130;28;20430;-69
2022/11/24 03:48:40;;;;;;;1.70;1.57;;;1.10;99.90;2.00;95930.00;;;;5089981;28;20747;-69
2022/11/24 03:51:30;;;;;;;1.40;1.37;;;1.10;99.90;2.10;95927.00;;;;5090045;28;20446;-69
2022/11/24 03:54:19;;;;;;;2.77;1.50;;;1.10;99.90;1.90;95928.00;;;;5087697;28;20429;-69
2022/11/24 03:57:07;;;;;;;2.27;2.03;;;1.10;99.90;2.00;95939.00;;;;5080838;28;20463;-69
2022/11/24 03:59:56;;;;;;;1.97;1.63;;;1.10;99.90;1.80;95925.00;;;;5090235;28;20461;-69
2022/11/24 04:02:45;;;;;;;1.63;1.53;;;1.10;99.90;1.70;95949.00;;;;5089637;28;20465;-69
2022/11/24 04:05:35;;;;;;;0.93;0.93;;;1.00;99.90;1.80;95947.00;;;;5081995;28;20421;-70
2022/11/24 04:08:25;;;;;;;2.17;1.50;;;1.00;99.90;2.20;95940.00;;;;5089838;28;20448;-69
2022/11/24 04:12:42;;;;;;;1.43;1.33;;;1.00;99.90;2.20;95952.00;;;;5089690;28;20426;-70
2022/11/24 04:14:21;;;;;;;1.87;1.77;;;1.00;99.90;2.30;95954.00;;;;5089489;28;20811;-69
2022/11/24 04:17:10;;;;;;;2.90;1.63;;;1.10;99.90;2.10;95951.00;;;;5090420;28;20575;-69
2022/11/24 04:19:58;;;;;;;0.70;0.70;;;1.10;99.90;2.20;95954.00;;;;5090095;28;22359;-70
2022/11/24 04:22:47;;;;;;;1.90;1.80;;;1.10;99.90;1.90;95959.00;;;;5089346;28;20473;-69
2022/11/24 04:25:37;;;;;;;2.37;1.80;;;1.00;99.90;1.70;95964.00;;;;5091689;28;20429;-69
2022/11/24 04:28:26;;;;;;;2.57;1.40;;;1.00;99.90;1.90;95983.00;;;;5098006;28;20935;-69
2022/11/24 04:31:15;;;;;;;1.30;1.20;;;1.00;99.90;2.10;95983.00;;;;5085274;28;20430;-69
2022/11/24 04:34:04;;;;;;;1.17;1.17;;;1.00;99.90;2.00;95976.00;;;;5085938;28;20441;-69
2022/11/24 04:36:53;;;;;;;1.17;1.10;;;1.00;99.90;2.10;95985.00;;;;5083274;28;20410;-69
2022/11/24 04:39:41;;;;;;;1.00;1.00;;;1.00;99.90;1.90;95976.00;;;;5104690;28;20442;-69
2022/11/24 04:42:31;;;;;;;1.23;1.13;;;1.10;99.90;2.00;95992.00;;;;5087875;28;20457;-70
2022/11/24 04:45:20;;;;;;;1.17;1.07;;;1.00;99.90;2.00;95991.00;;;;5089513;28;20430;-70
2022/11/24 04:48:09;;;;;;;1.20;0.93;;;1.10;99.90;2.20;95987.00;;;;5092907;28;20453;-69
2022/11/24 04:50:58;;;;;;;1.03;0.93;;;1.00;99.90;2.10;95992.00;;;;5084715;28;20491;-70
2022/11/24 04:53:48;;;;;;;1.57;1.20;;;1.10;99.90;2.20;95989.00;;;;5088712;28;20961;-70
2022/11/24 04:56:37;;;;;;;0.83;0.83;;;1.10;99.90;2.10;96002.00;;;;5075179;28;20429;-70
2022/11/24 04:59:27;;;;;;;1.43;1.33;;;1.10;99.90;2.00;96005.00;;;;5088953;28;20475;-70
2022/11/24 05:02:16;;;;;;;4.70;1.53;;;1.10;99.90;2.20;96005.00;;;;5092624;28;20492;-70
2022/11/24 05:05:06;;;;;;;1.53;1.43;;;1.20;99.90;2.40;96004.00;;;;5089929;28;20422;-69
2022/11/24 05:07:55;;;;;;;1.80;1.70;;;1.20;99.90;2.20;96004.00;;;;5085800;28;20445;-70
2022/11/24 05:10:44;;;;;;;1.50;1.40;;;1.20;99.90;2.10;96017.00;;;;5093352;28;20422;-70
2022/11/24 05:13:33;;;;;;;0.97;0.90;;;1.20;99.90;2.20;96016.00;;;;5098882;28;20479;-70
2022/11/24 05:16:23;;;;;;;1.60;1.50;;;1.20;99.90;2.40;96024.00;;;;5089274;28;20494;-69
2022/11/24 05:19:13;;;;;;;2.00;1.73;;;1.30;99.90;2.00;96036.00;;;;5095605;28;20778;-70
2022/11/24 05:22:01;;;;;;;1.40;1.07;;;1.30;99.90;2.00;96032.00;;;;5096682;28;20464;-70
2022/11/24 05:24:50;;;;;;;1.53;1.13;;;1.20;99.90;1.90;96044.00;;;;5094361;28;20445;-69
2022/11/24 05:27:39;;;;;;;1.67;0.90;;;1.20;99.90;2.30;96045.00;;;;5085736;28;20445;-69
2022/11/24 05:30:28;;;;;;;1.33;1.23;;;1.20;99.90;2.50;96039.00;;;;5086060;28;20498;-70
2022/11/24 05:33:19;;;;;;;1.30;1.07;;;1.20;99.90;2.50;96038.00;;;;5093528;28;20433;-69
2022/11/24 05:36:51;;;;;;;1.10;0.97;;;1.30;99.90;2.30;96046.00;;;;5096298;28;20420;-70
2022/11/24 05:39:17;;;;;;;1.50;1.30;;;-1.00;99.90;2.20;96037.00;;;;5085449;28;20514;-70
2022/11/24 05:45:14;;;;;;;1.90;1.23;;;1.20;99.90;1.80;96055.00;;;;5090945;28;20445;-70
2022/11/24 05:48:06;;;;;;;2.03;1.60;;;1.10;99.90;2.00;96030.00;;;;5090185;28;20426;-69
2022/11/24 05:50:57;;;;;;;1.40;1.30;;;1.10;99.90;2.10;96035.00;;;;5089834;28;20444;-69
2022/11/24 05:53:46;;;;;;;2.80;1.50;;;1.20;99.90;2.50;96044.00;;;;5089618;28;20441;-69
2022/11/24 05:56:34;;;;;;;1.13;1.03;;;1.20;99.90;2.50;96036.00;;;;5080342;28;20461;-70
2022/11/24 05:59:23;;;;;;;3.50;2.80;;;1.30;99.90;2.20;96040.00;;;;5089846;28;20429;-69
2022/11/24 06:02:12;;;;;;;2.10;1.90;;;1.30;99.90;2.60;96046.00;;;;5090287;28;20484;-69
2022/11/24 06:05:01;;;;;;;1.87;1.77;;;1.40;99.90;2.50;96045.00;;;;5091948;28;20800;-69
2022/11/24 06:07:52;;;;;;;5.03;1.97;;;1.40;99.90;2.60;96052.00;;;;5092686;28;20456;-69
2022/11/24 06:10:41;;;;;;;1.03;1.03;;;1.40;99.90;2.10;96054.00;;;;5091637;28;20422;-70
2022/11/24 06:13:29;;;;;;;1.80;1.43;;;1.40;99.90;2.30;96067.00;;;;5102510;28;20440;-71
2022/11/24 06:16:18;;;;;;;1.37;1.27;;;1.30;99.90;1.90;96056.00;;;;5092396;28;20959;-70
2022/11/24 06:19:07;;;;;;;1.53;1.10;;;1.20;99.90;1.50;96047.00;;;;5105750;28;20432;-70
2022/11/24 06:21:56;;;;;;;1.20;1.10;;;1.10;99.90;2.10;96059.00;;;;5089220;28;20459;-69
2022/11/24 06:24:49;;;;;;;1.43;1.33;;;1.10;99.90;2.20;96067.00;;;;5084941;28;20447;-69
2022/11/24 06:27:37;;;;;;;1.73;1.40;;;1.20;99.90;2.30;96062.00;;;;5091223;28;20507;-69
2022/11/24 06:30:26;;;;;;;1.77;1.67;;;1.20;99.90;2.30;96060.00;;;;5091196;28;20555;-69
2022/11/24 06:33:15;;;;;;;4.33;2.30;;;1.20;99.90;2.50;96073.00;;;;5087604;28;20971;-69
2022/11/24 06:36:06;;;;;;;2.37;1.73;;;1.30;99.90;2.50;96074.00;;;;5087358;28;20487;-70
2022/11/24 06:38:54;;;;;;;1.60;1.50;;;1.30;99.90;2.60;96080.00;;;;5089994;28;20445;-69
2022/11/24 06:41:44;;;;;;;2.47;2.17;;;1.40;99.90;2.70;96077.00;;;;5088463;28;20485;-70
2022/11/24 06:44:33;;;;;;;3.17;1.63;;;1.40;99.90;2.60;96090.00;;;;5088611;28;20971;-69
2022/11/24 06:47:22;;;;;;;1.73;1.33;;;1.40;99.90;2.50;96096.00;;;;5089030;28;20414;-69
2022/11/24 06:50:12;;;;;;;2.27;2.07;;;1.40;99.90;2.40;96093.00;;;;5084355;28;20429;-69
2022/11/24 06:53:01;;;;;;;4.67;2.20;;;1.60;99.90;2.60;96097.00;;;;5084506;28;20990;-69
2022/11/24 06:55:50;;;;;;;5.63;2.30;;;1.50;99.90;2.60;96102.00;;;;5091840;28;20414;-69
2022/11/24 06:58:43;;;;;;;10.03;6.07;;;1.50;99.90;2.80;96099.00;;;;5077892;28;20481;-69
2022/11/24 07:01:32;;;;;;;16.70;8.83;;;1.50;99.90;2.70;96111.00;;;;5089156;28;20889;-69
2022/11/24 07:04:21;;;;;;;12.50;7.97;;;1.60;99.90;2.70;96113.00;;;;5088600;28;20429;-69
2022/11/24 07:07:09;;;;;;;7.47;3.23;;;1.70;99.90;2.30;96116.00;;;;5088287;28;20524;-69
2022/11/24 07:09:58;;;;;;;5.27;3.90;;;1.50;99.90;2.60;96135.00;;;;5091110;28;20421;-69
2022/11/24 07:12:47;;;;;;;3.70;3.17;;;1.50;99.90;3.00;96136.00;;;;5090590;28;20446;-69
2022/11/24 07:15:37;;;;;;;3.20;2.67;;;1.60;99.90;2.90;96130.00;;;;5095246;28;20432;-69
2022/11/24 07:18:26;;;;;;;2.53;2.23;;;1.60;99.90;2.70;96144.00;;;;5094871;28;20422;-69
2022/11/24 07:21:15;;;;;;;2.30;2.10;;;1.70;99.90;3.00;96141.00;;;;5098855;28;20421;-69
2022/11/24 07:24:05;;;;;;;3.43;1.97;;;1.70;99.90;3.00;96144.00;;;;5095831;28;20436;-69
2022/11/24 07:26:53;;;;;;;1.33;1.10;;;1.80;99.90;3.30;96161.00;;;;5103648;28;20454;-69
2022/11/24 07:29:42;;;;;;;2.00;1.13;;;2.00;99.90;3.50;96143.00;;;;5076921;28;20500;-69
2022/11/24 07:32:32;;;;;;;2.30;2.10;;;2.00;99.90;3.50;96154.00;;;;5098743;28;20534;-69
2022/11/24 07:35:21;;;;;;;1.30;1.20;;;2.00;99.90;3.60;96160.00;;;;5100957;28;20956;-69
2022/11/24 07:38:11;;;;;;;5.17;2.50;;;2.20;99.90;3.60;96165.00;;;;5079036;28;20438;-69
2022/11/24 07:41:01;;;;;;;2.23;1.67;;;2.20;99.90;3.30;96163.00;;;;5078106;28;20912;-69
2022/11/24 07:43:50;;;;;;;3.10;1.97;;;2.30;99.90;3.60;96157.00;;;;5084093;28;20483;-70
2022/11/24 07:46:39;;;;;;;2.87;2.60;;;2.20;99.90;3.70;96177.00;;;;5082200;28;20422;-69
2022/11/24 07:49:29;;;;;;;2.57;2.37;;;2.30;99.90;3.80;96168.00;;;;5079876;28;20442;-69
2022/11/24 07:52:17;;;;;;;4.33;3.03;;;2.50;99.90;3.50;96160.00;;;;5086375;28;20612;-69
2022/11/24 07:55:08;;;;;;;3.13;2.57;;;2.40;99.90;3.50;96156.00;;;;5085054;28;20768;-69
2022/11/24 07:58:00;;;;;;;6.33;4.77;;;2.40;99.90;3.60;96163.00;;;;5089389;28;20940;-69
2022/11/24 08:00:49;;;;;;;3.03;2.70;;;2.50;99.90;4.00;96172.00;;;;5089768;28;20449;-69
2022/11/24 08:03:38;;;;;;;3.40;3.10;;;2.60;99.90;4.20;96174.00;;;;5083111;28;20473;-69
2022/11/24 08:06:29;;;;;;;3.60;3.37;;;2.70;99.90;4.30;96180.00;;;;5088496;28;20441;-69
2022/11/24 08:09:23;;;;;;;3.53;2.73;;;2.80;99.90;3.60;96176.00;;;;5084877;28;20202;-70
2022/11/24 08:12:12;;;;;;;1.87;1.23;;;2.90;99.90;3.40;96194.00;;;;5083648;28;20511;-69
2022/11/24 08:15:00;;;;;;;2.43;1.73;;;2.70;99.90;4.20;96188.00;;;;5081630;28;20446;-69
2022/11/24 08:17:50;;;;;;;2.13;1.80;;;2.80;99.90;4.20;96196.00;;;;5087902;28;20414;-69
2022/11/24 08:20:39;;;;;;;5.93;1.37;;;2.90;99.90;4.00;96202.00;;;;5093669;28;20457;-69
2022/11/24 08:23:30;;;;;;;1.30;1.20;;;2.90;99.90;4.00;96203.00;;;;5091765;28;20230;-69
2022/11/24 08:26:19;;;;;;;1.37;1.27;;;3.00;99.90;4.40;96204.00;;;;5087920;28;20421;-69
2022/11/24 08:29:08;;;;;;;4.50;1.60;;;3.10;99.90;5.00;96195.00;;;;5088870;28;20422;-69
2022/11/24 08:31:57;;;;;;;1.93;1.50;;;3.20;99.90;4.90;96211.00;;;;5091072;28;20468;-68
2022/11/24 08:34:46;;;;;;;2.20;1.53;;;3.40;99.90;4.70;96210.00;;;;5097661;28;20206;-69
2022/11/24 08:37:34;;;;;;;2.07;1.63;;;3.50;99.90;4.40;96209.00;;;;5087043;28;20198;-69
2022/11/24 08:40:24;;;;;;;6.07;1.10;;;3.50;99.90;4.80;96228.00;;;;5086385;28;20743;-69
2022/11/24 08:43:13;;;;;;;1.50;1.10;;;3.60;99.90;4.50;96208.00;;;;5087621;28;20234;-69
2022/11/24 08:46:03;;;;;;;1.90;1.80;;;3.50;99.90;5.20;96217.00;;;;5086116;28;20263;-69
2022/11/24 08:48:55;;;;;;;3.80;3.20;;;3.70;99.90;5.90;96217.00;;;;5081272;28;20203;-69
2022/11/24 08:51:43;;;;;;;6.73;4.50;;;4.00;99.90;6.20;96228.00;;;;5083368;28;20195;-69
2022/11/24 08:54:32;;;;;;;9.20;5.60;;;4.20;99.90;6.50;96235.00;;;;5096329;28;20210;-69
2022/11/24 08:57:23;;;;;;;13.53;6.47;;;4.50;99.90;6.80;96227.00;;;;5087340;28;20232;-69
2022/11/24 09:00:21;;;;;;;8.23;6.13;;;4.80;99.90;7.00;96233.00;;;;5088594;28;20261;-69
2022/11/24 09:03:12;;;;;;;6.30;5.10;;;5.00;99.90;7.20;96240.00;;;;5085049;28;20233;-69
2022/11/24 09:06:01;;;;;;;2.43;2.23;;;5.30;99.90;6.70;96223.00;;;;5086947;28;20266;-69
2022/11/24 09:08:50;;;;;;;3.27;2.87;;;5.40;99.90;6.40;96247.00;;;;5081308;28;20687;-69
2022/11/24 09:11:38;;;;;;;8.90;4.13;;;5.40;99.90;6.90;96247.00;;;;5080233;28;20565;-68
2022/11/24 09:14:29;;;;;;;3.93;3.53;;;5.40;99.90;7.40;96250.00;;;;5089208;28;20571;-68
2022/11/24 09:17:18;;;;;;;7.93;3.83;;;5.50;99.90;7.20;96250.00;;;;5080523;28;20683;-69
2022/11/24 09:20:07;;;;;;;6.83;4.07;;;5.70;99.90;7.50;96245.00;;;;5087735;28;20195;-68
2022/11/24 09:22:56;;;;;;;7.27;3.13;;;5.80;99.90;8.00;96256.00;;;;5084556;28;20295;-68
2022/11/24 09:25:45;;;;;;;3.80;2.87;;;6.00;99.90;8.00;96261.00;;;;5092390;28;20232;-68
2022/11/24 09:28:34;;;;;;;4.87;3.30;;;6.20;99.90;7.70;96264.00;;;;5081908;28;20268;-68
2022/11/24 09:31:27;;;;;;;4.47;3.67;;;6.30;99.90;8.00;96272.00;;;;5088164;28;20272;-68
2022/11/24 09:34:17;;;;;;;5.93;3.30;;;6.50;99.90;8.40;96261.00;;;;5085741;28;20215;-68
2022/11/24 09:37:06;;;;;;;4.50;3.40;;;6.50;99.90;8.50;96274.00;;;;5083574;28;20198;-68
2022/11/24 09:39:55;;;;;;;6.63;3.37;;;6.70;99.90;8.30;96266.00;;;;5089909;28;20570;-68
2022/11/24 09:42:56;;;;;;;7.83;3.90;;;6.70;99.90;8.60;96265.00;;;;5092339;28;20803;-68
2022/11/24 09:45:56;;;;;;;9.37;3.97;;;6.80;99.90;8.80;96272.00;;;;5089406;28;20856;-68
2022/11/24 09:48:57;;;;;;;4.07;3.30;;;6.90;99.90;9.20;96251.00;;;;5089999;28;20207;-68
2022/11/24 09:51:50;;;;;;;3.20;2.90;;;7.10;99.90;9.90;96265.00;;;;5090033;28;20203;-68
2022/11/24 09:54:48;;;;;;;5.37;3.27;;;7.40;99.90;10.00;96259.00;;;;5092078;28;20276;-68
2022/11/24 09:57:40;;;;;;;7.57;3.30;;;7.70;99.90;10.60;96272.00;;;;5102172;28;20195;-67
2022/11/24 10:00:29;;;;;;;1.60;1.50;;;8.10;99.90;10.40;96283.00;;;;5091384;28;20223;-68
2022/11/24 10:03:25;;;;;;;4.43;2.43;;;8.40;99.90;10.90;96270.00;;;;5085587;28;20311;-67
2022/11/24 10:06:25;;;;;;;2.10;1.90;;;8.60;99.90;11.30;96269.00;;;;5084722;28;20268;-67
2022/11/24 10:09:28;;;;;;;3.17;2.17;;;8.90;99.90;11.70;96267.00;;;;5090235;28;20199;-67
2022/11/24 10:12:35;;;;;;;2.37;2.03;;;9.20;99.90;12.40;96295.00;;;;5088327;28;20230;-67
2022/11/24 10:15:40;;;;;;;2.33;2.07;;;9.80;99.90;12.30;96264.00;;;;5090249;28;20742;-67
2022/11/24 10:18:43;;;;;;;2.30;2.10;;;10.70;99.90;12.60;96295.00;;;;5090620;28;20206;-67
2022/11/24 10:21:58;;;;;;;2.80;2.13;;;11.40;99.90;12.70;96269.00;;;;5088386;28;20199;-68
2022/11/24 10:25:08;;;;;;;3.27;1.60;;;11.70;99.90;12.90;96301.00;;;;5090172;28;20319;-67
2022/11/24 10:28:00;;;;;;;2.40;1.83;;;11.90;99.90;11.90;96299.00;;;;5098057;28;20196;-68
2022/11/24 10:30:50;;;;;;;2.00;1.80;;;11.80;99.90;12.10;96303.00;;;;5095740;28;20199;-67
2022/11/24 10:33:39;;;;;;;3.30;2.00;;;11.40;99.90;12.20;96300.00;;;;5096989;27;20219;-68
2022/11/24 10:36:40;;;;;;;5.43;2.17;;;11.20;99.90;11.90;96297.00;;;;5102742;28;20194;-67
2022/11/24 10:39:37;;;;;;;2.10;1.80;;;10.90;99.90;11.90;96297.00;;;;5087361;28;20208;-67
2022/11/24 10:42:29;;;;;;;1.50;1.40;;;10.70;99.90;11.80;96288.00;;;;5086350;28;20212;-67
2022/11/24 10:45:21;;;;;;;2.57;1.80;;;10.50;99.90;12.70;96279.00;;;;5085533;28;20597;-67
2022/11/24 10:48:20;;;;;;;2.37;2.17;;;10.70;99.90;13.30;96262.00;;;;5085290;28;20206;-67
2022/11/24 10:51:35;;;;;;;4.93;4.43;;;11.50;99.90;14.60;96278.00;;;;5083074;28;20212;-67
2022/11/24 10:54:24;;;;;;;6.07;1.87;;;12.70;99.90;15.10;96273.00;;;;5091502;28;20114;-67
2022/11/24 10:57:29;;;;;;;2.90;2.20;;;13.90;99.90;15.80;96285.00;;;;5087143;28;20215;-66
2022/11/24 11:00:33;;;;;;;6.00;2.17;;;14.80;99.90;14.10;96264.00;;;;5089538;28;20227;-68
2022/11/24 11:03:24;;;;;;;4.13;2.23;;;15.10;99.90;14.60;96273.00;;;;5089426;28;20724;-68
2022/11/24 11:06:15;;;;;;;2.60;2.40;;;15.20;99.90;15.00;96271.00;;;;5081094;28;20702;-68
2022/11/24 11:09:19;;;;;;;3.23;2.20;;;15.20;99.90;16.10;96277.00;;;;5106761;28;20211;-67
2022/11/24 11:12:19;;;;;;;5.70;3.00;;;15.60;99.90;15.50;96314.00;;;;5087339;28;20630;-68
2022/11/24 11:15:27;;;;;;;2.37;1.70;;;15.80;99.50;14.40;96272.00;;;;5084914;28;20191;-68
2022/11/24 11:18:18;;;;;;;2.93;2.30;;;15.50;99.10;15.20;96261.00;;;;5080213;28;20206;-67
2022/11/24 11:21:07;;;;;;;3.03;2.30;;;15.20;98.50;16.70;96263.00;;;;5083991;28;20919;-67
2022/11/24 11:23:55;;;;;;;5.10;2.90;;;15.30;99.70;16.30;96290.00;;;;5080554;28;20306;-67
2022/11/24 11:26:44;;;;;;;4.13;2.70;;;15.70;98.60;15.00;96269.00;;;;5084984;28;20202;-67
2022/11/24 11:29:34;;;;;;;2.80;2.60;;;15.40;96.50;16.00;96304.00;;;;5080515;28;20276;-69
2022/11/24 11:32:54;;;;;;;4.60;2.60;;;15.30;97.50;15.80;96312.00;;;;5084715;28;20903;-68
2022/11/24 11:36:10;;;;;;;6.43;1.80;;;15.10;96.60;15.70;96317.00;;;;5085066;28;20199;-68
2022/11/24 11:38:59;;;;;;;2.90;1.20;;;14.70;95.70;16.90;96282.00;;;;5088690;28;20256;-68
2022/11/24 11:41:50;;;;;;;4.13;1.53;;;14.80;96.80;17.90;96276.00;;;;5088130;28;20196;-68
2022/11/24 11:44:46;;;;;;;1.87;1.10;;;15.40;97.60;18.80;96283.00;;;;5090266;28;20261;-67
2022/11/24 11:47:44;;;;;;;2.70;1.50;;;16.20;96.50;18.40;96279.00;;;;5088909;28;20196;-67
2022/11/24 11:50:41;;;;;;;2.23;1.57;;;16.70;92.20;19.30;96274.00;;;;5081122;28;20199;-67
2022/11/24 11:53:57;;;;;;;1.80;1.60;;;17.20;93.30;19.30;96264.00;;;;5087173;28;20223;-67
2022/11/24 11:56:49;;;;;;;3.37;1.40;;;17.60;91.40;17.80;96279.00;;;;5084491;28;20203;-67
2022/11/24 12:00:08;;;;;;;1.47;1.00;;;17.90;84.90;17.20;96266.00;;;;5078836;28;20279;-68
2022/11/24 12:03:42;;;;;;;1.40;1.00;;;17.40;81.10;18.00;96321.00;;;;5085613;28;20791;-68
2022/11/24 12:06:59;;;;;;;1.10;1.00;;;17.00;84.70;19.10;96280.00;;;;5082925;28;20199;-67
2022/11/24 12:10:01;;;;;;;2.50;1.20;;;17.10;84.30;18.60;96309.00;;;;5078475;28;20806;-67
2022/11/24 12:13:03;;;;;;;2.97;0.90;;;17.40;78.90;17.80;96284.00;;;;5082510;28;20269;-66
2022/11/24 12:15:57;;;;;;;2.80;0.70;;;17.00;76.50;17.70;96318.00;;;;5076466;28;20291;-67
2022/11/24 12:19:00;;;;;;;3.33;0.77;;;16.90;77.70;20.10;96323.00;;;;5081856;28;20195;-67
2022/11/24 12:22:03;;;;;;;2.40;1.00;;;17.40;81.40;19.10;96331.00;;;;5083633;28;20240;-67
2022/11/24 12:25:02;;;;;;;2.67;1.20;;;17.40;76.40;19.40;96277.00;;;;5084500;28;20222;-67
2022/11/24 12:28:06;;;;;;;3.63;1.57;;;17.40;78.80;20.50;96281.00;;;;5082592;28;20214;-67
2022/11/24 12:31:06;;;;;;;1.13;0.40;;;17.80;77.90;21.60;96287.00;;;;5085993;28;20203;-67
2022/11/24 12:34:27;;;;;;;2.80;0.53;;;18.60;78.10;21.30;96287.00;;;;5085795;28;20241;-68
2022/11/24 12:37:46;;;;;;;0.70;0.50;;;19.30;70.60;21.60;96282.00;;;;5081850;28;20227;-67
2022/11/24 12:41:11;;;;;;;2.63;0.80;;;19.50;71.90;22.10;96283.00;;;;5078466;28;20300;-67
2022/11/24 12:44:41;;;;;;;2.87;1.03;;;19.90;71.20;23.00;96339.00;;;;5085758;28;20605;-67
2022/11/24 12:47:43;;;;;;;2.47;1.00;;;20.60;69.00;21.30;96353.00;;;;5078799;28;20197;-67
2022/11/24 12:50:38;;;;;;;1.00;0.70;;;20.50;63.80;19.10;96302.00;;;;5082937;28;20204;-67
2022/11/24 12:53:32;;;;;;;8.20;0.80;;;20.00;63.80;18.00;96341.00;;;;5083071;28;20603;-67
2022/11/24 12:56:29;;;;;;;1.77;0.93;;;18.90;65.50;16.10;96335.00;;;;5083060;28;20426;-67
2022/11/24 12:59:34;;;;;;;1.77;0.80;;;17.70;64.60;15.70;96334.00;;;;5081427;28;20225;-67
2022/11/24 13:02:39;;;;;;;3.87;0.90;;;16.50;68.50;15.40;96336.00;;;;5082839;28;20221;-67
2022/11/24 13:05:36;;;;;;;1.73;1.00;;;15.50;71.00;15.20;96339.00;;;;5085370;28;20231;-66